»·PEaware :: ASA821 KSAN-KPDX

ASA821 :: KSAN-KPDX

FLIGHT INFORMATION

Flight Status: Arrived
Operator:
Alaska Airlines
More flights by this operator :: More flights under this callsign
Pilot: Andre N. (13929)
Aircraft: BOEING 737-800
(B738)
More flights by this aircraft type
Origin: KSAN San Diego Intl-Lindbergh
United States
Destination: KPDX Portland Intl
United States
More flights between these airports :: More routes between these airports
Route: PADRZ2 EHF DUCKE GALLO TMBRS2
File this flight plan on PilotEdge
Remarks:
Altitude:
(Current/Filed)
36,000ft
Speed:
(Current/Filed)
450kts
Departed: 02-Apr-18 06:37 PM
Arrived: 02-Apr-18 08:58 PM
Distance/Time
Traveled:
811nm/2:21
Distance/Time
To Go:
Arrived

Flight Plot

Page will automatically refresh every two minutes.

Flight plan parsing failed; only flown route is shown


Map Options




Map Legend


Flown Route
Filed Route
Departure Airport
Arrival Airport
Navaid (VOR, NDB)
Fix

Horizontal Profiles

Position Reports

Time Latitude Longitude Heading Altitude Ground
Speed
02-Apr-18 18:11 32.733371 -117.199100 116 25ft 0kts
02-Apr-18 18:12 32.733371 -117.199100 116 25ft 0kts
02-Apr-18 18:13 32.733371 -117.199100 116 25ft 0kts
02-Apr-18 18:14 32.733371 -117.199100 116 25ft 0kts
02-Apr-18 18:15 32.733371 -117.199100 116 25ft 0kts
02-Apr-18 18:16 32.733371 -117.199100 116 25ft 0kts
02-Apr-18 18:17 32.733371 -117.199100 116 25ft 0kts
02-Apr-18 18:18 32.733371 -117.199100 116 25ft 0kts
02-Apr-18 18:19 32.733482 -117.199365 115 25ft 2kts
02-Apr-18 18:20 32.733229 -117.199877 7 25ft 2kts
02-Apr-18 18:21 32.733025 -117.199927 13 25ft 0kts
02-Apr-18 18:22 32.733025 -117.199927 13 25ft 0kts
02-Apr-18 18:23 32.733025 -117.199927 13 25ft 0kts
02-Apr-18 18:24 32.733025 -117.199927 13 25ft 0kts
02-Apr-18 18:25 32.733025 -117.199927 13 25ft 0kts
02-Apr-18 18:26 32.733025 -117.199927 13 25ft 0kts
02-Apr-18 18:27 32.733025 -117.199927 13 25ft 0kts
02-Apr-18 18:28 32.733013 -117.199930 12 25ft 0kts
02-Apr-18 18:29 32.733020 -117.199929 13 25ft 0kts
02-Apr-18 18:30 32.734306 -117.197086 105 25ft 20kts
02-Apr-18 18:31 32.732322 -117.188830 106 25ft 28kts
02-Apr-18 18:32 32.730195 -117.180033 106 25ft 27kts
02-Apr-18 18:33 32.729483 -117.177038 94 25ft 0kts
02-Apr-18 18:34 32.729483 -117.177038 94 25ft 0kts
02-Apr-18 18:35 32.730413 -117.176751 286 24ft 17kts
02-Apr-18 18:36 32.740028 -117.216745 284 1229ft 182kts
02-Apr-18 18:37 32.767896 -117.269763 305 3830ft 221kts
02-Apr-18 18:38 32.806488 -117.328945 306 6368ft 263kts
02-Apr-18 18:39 32.852210 -117.399709 303 9684ft 276kts
02-Apr-18 18:40 32.897990 -117.470717 304 13042ft 273kts
02-Apr-18 18:41 32.944801 -117.543626 307 14977ft 296kts
02-Apr-18 18:42 32.997286 -117.625457 308 14974ft 319kts
02-Apr-18 18:43 33.049162 -117.706534 307 17638ft 328kts
02-Apr-18 18:44 33.113812 -117.782391 318 20076ft 339kts
02-Apr-18 18:45 33.165622 -117.834794 318 21700ft 347kts
02-Apr-18 18:46 33.225328 -117.894196 320 23306ft 356kts
02-Apr-18 18:47 33.300064 -117.966828 320 25187ft 364kts
02-Apr-18 18:48 33.378941 -118.043761 320 26863ft 373kts
02-Apr-18 18:49 33.458723 -118.121831 320 28365ft 381kts
02-Apr-18 18:50 33.533956 -118.195672 320 29667ft 387kts
02-Apr-18 18:51 33.616227 -118.261797 334 31276ft 382kts
02-Apr-18 18:52 33.691209 -118.301908 334 32431ft 380kts
02-Apr-18 18:53 33.773537 -118.346270 335 32871ft 396kts
02-Apr-18 18:54 33.874040 -118.396484 335 33421ft 413kts
02-Apr-18 18:55 33.974863 -118.447099 335 34619ft 410kts
02-Apr-18 18:56 34.083171 -118.475419 350 35682ft 413kts
02-Apr-18 18:57 34.183278 -118.489501 350 35920ft 426kts
02-Apr-18 18:58 34.298721 -118.506668 349 35938ft 427kts
02-Apr-18 18:59 34.415099 -118.524300 349 35932ft 427kts
02-Apr-18 19:00 34.530411 -118.541941 349 35882ft 427kts
02-Apr-18 19:01 34.643718 -118.559378 349 35881ft 426kts
02-Apr-18 19:02 34.758458 -118.577114 349 35880ft 426kts
02-Apr-18 19:03 34.871388 -118.594641 349 35986ft 427kts
02-Apr-18 19:04 34.986736 -118.612976 345 35980ft 424kts
02-Apr-18 19:05 35.075713 -118.679413 319 35992ft 415kts
02-Apr-18 19:06 35.150598 -118.755476 319 35998ft 415kts
02-Apr-18 19:07 35.229945 -118.836277 319 35925ft 416kts
02-Apr-18 19:08 35.316161 -118.924262 319 35887ft 415kts
02-Apr-18 19:09 35.402476 -119.012575 318 35887ft 415kts
02-Apr-18 19:10 35.490677 -119.098849 330 35867ft 416kts
02-Apr-18 19:11 35.598767 -119.145157 338 35883ft 419kts
02-Apr-18 19:12 35.707784 -119.189140 338 35910ft 419kts
02-Apr-18 19:13 35.817429 -119.233822 338 35908ft 419kts
02-Apr-18 19:14 35.926466 -119.278808 337 35908ft 419kts
02-Apr-18 19:15 36.035773 -119.324203 337 35906ft 419kts
02-Apr-18 19:16 36.137742 -119.366650 337 35913ft 419kts
02-Apr-18 19:17 36.243107 -119.410546 337 35911ft 418kts
02-Apr-18 19:18 36.351677 -119.455723 335 35908ft 417kts
02-Apr-18 19:19 36.460626 -119.501188 336 35907ft 420kts
02-Apr-18 19:20 36.569878 -119.546709 336 35906ft 420kts
02-Apr-18 19:21 36.678554 -119.591990 336 35905ft 420kts
02-Apr-18 19:22 36.786782 -119.637081 336 35904ft 420kts
02-Apr-18 19:23 36.880606 -119.676229 335 35914ft 420kts
02-Apr-18 19:24 36.988686 -119.721339 335 35913ft 419kts
02-Apr-18 19:25 37.098865 -119.767279 335 35912ft 419kts
02-Apr-18 19:26 37.185156 -119.803245 335 35917ft 419kts
02-Apr-18 19:27 37.292516 -119.847983 335 35916ft 419kts
02-Apr-18 19:28 37.401693 -119.893474 335 35915ft 419kts
02-Apr-18 19:29 37.510392 -119.938738 335 35887ft 417kts
02-Apr-18 19:30 37.619655 -119.984276 335 35898ft 417kts
02-Apr-18 19:31 37.728561 -120.029680 336 35965ft 420kts
02-Apr-18 19:32 37.837853 -120.075217 336 35964ft 419kts
02-Apr-18 19:33 37.947211 -120.119418 337 35963ft 420kts
02-Apr-18 19:34 38.056856 -120.162547 336 35962ft 420kts
02-Apr-18 19:35 38.148935 -120.199981 336 35966ft 420kts
02-Apr-18 19:36 38.255861 -120.243891 336 35966ft 420kts
02-Apr-18 19:37 38.366261 -120.289324 336 35964ft 420kts
02-Apr-18 19:38 38.474857 -120.334031 336 36015ft 420kts
02-Apr-18 19:39 38.585361 -120.379521 336 36016ft 420kts
02-Apr-18 19:40 38.695504 -120.424866 336 35961ft 420kts
02-Apr-18 19:41 38.804104 -120.469577 336 35960ft 420kts
02-Apr-18 19:42 38.912626 -120.514256 336 36014ft 420kts
02-Apr-18 19:43 39.021415 -120.559044 336 36020ft 420kts
02-Apr-18 19:44 39.121266 -120.600153 336 36044ft 420kts
02-Apr-18 19:45 39.228039 -120.644110 337 36042ft 420kts
02-Apr-18 19:46 39.329876 -120.686118 336 36053ft 420kts
02-Apr-18 19:47 39.440277 -120.731611 336 36051ft 420kts
02-Apr-18 19:48 39.551266 -120.777311 336 36050ft 420kts
02-Apr-18 19:49 39.659186 -120.821744 336 36049ft 420kts
02-Apr-18 19:50 39.764637 -120.865156 336 36048ft 420kts
02-Apr-18 19:51 39.872648 -120.909621 336 36047ft 420kts
02-Apr-18 19:52 39.980762 -120.954130 336 36046ft 421kts
02-Apr-18 19:53 40.088066 -120.998301 337 35992ft 421kts
02-Apr-18 19:54 40.188581 -121.039681 337 35915ft 422kts
02-Apr-18 19:55 40.297773 -121.084625 337 35913ft 422kts
02-Apr-18 19:56 40.405179 -121.128834 337 35912ft 422kts
02-Apr-18 19:57 40.509454 -121.171700 335 35936ft 411kts
02-Apr-18 19:58 40.615861 -121.215552 335 35936ft 411kts
02-Apr-18 19:59 40.722712 -121.259493 335 35939ft 404kts
02-Apr-18 20:00 40.827230 -121.302546 335 35957ft 403kts
02-Apr-18 20:01 40.925492 -121.343029 335 36042ft 409kts
02-Apr-18 20:02 41.030988 -121.386427 336 36039ft 410kts
02-Apr-18 20:03 41.131539 -121.427786 336 36047ft 410kts
02-Apr-18 20:04 41.236909 -121.471131 336 36044ft 410kts
02-Apr-18 20:05 41.343852 -121.515130 336 36042ft 410kts
02-Apr-18 20:06 41.450297 -121.558876 335 36065ft 404kts
02-Apr-18 20:07 41.556811 -121.602716 335 36066ft 404kts
02-Apr-18 20:08 41.662658 -121.646284 336 36062ft 408kts
02-Apr-18 20:09 41.759624 -121.686307 335 36077ft 408kts
02-Apr-18 20:10 41.865403 -121.729904 335 36076ft 408kts
02-Apr-18 20:11 41.969642 -121.772786 335 36077ft 403kts
02-Apr-18 20:12 42.073575 -121.815576 335 36073ft 404kts
02-Apr-18 20:13 42.151426 -121.847614 335 36079ft 404kts
02-Apr-18 20:14 42.276719 -121.899176 335 36078ft 407kts
02-Apr-18 20:15 42.384727 -121.943591 335 36076ft 407kts
02-Apr-18 20:16 42.492433 -121.987891 335 36075ft 407kts
02-Apr-18 20:17 42.600407 -122.032304 335 36074ft 407kts
02-Apr-18 20:18 42.689147 -122.068788 335 36072ft 404kts
02-Apr-18 20:19 42.794321 -122.112062 335 36071ft 404kts
02-Apr-18 20:20 42.901048 -122.155991 336 36070ft 406kts
02-Apr-18 20:21 43.005724 -122.203647 334 36069ft 404kts
02-Apr-18 20:22 43.121814 -122.258484 334 36184ft 404kts
02-Apr-18 20:23 43.203688 -122.297220 334 36181ft 404kts
02-Apr-18 20:24 43.308676 -122.346991 334 36180ft 402kts
02-Apr-18 20:25 43.413478 -122.396828 334 36176ft 402kts
02-Apr-18 20:26 43.517863 -122.446683 334 36178ft 404kts
02-Apr-18 20:27 43.623136 -122.497140 334 36188ft 403kts
02-Apr-18 20:28 43.728066 -122.547536 334 35137ft 393kts
02-Apr-18 20:29 43.829361 -122.596403 334 33105ft 392kts
02-Apr-18 20:30 43.932074 -122.646203 334 31072ft 396kts
02-Apr-18 20:31 44.030847 -122.694322 334 29106ft 375kts
02-Apr-18 20:32 44.121835 -122.738697 334 27271ft 346kts
02-Apr-18 20:33 44.210743 -122.748889 355 25683ft 354kts
02-Apr-18 20:34 44.295180 -122.740204 355 24228ft 345kts
02-Apr-18 20:35 44.385342 -122.731038 355 22741ft 338kts
02-Apr-18 20:36 44.475849 -122.721918 356 21295ft 332kts
02-Apr-18 20:37 44.566724 -122.712776 356 19813ft 326kts
02-Apr-18 20:38 44.654855 -122.703871 357 18344ft 321kts
02-Apr-18 20:39 44.742252 -122.695014 357 16854ft 313kts
02-Apr-18 20:40 44.827088 -122.686419 358 15363ft 305kts
02-Apr-18 20:41 44.908870 -122.678104 359 13832ft 287kts
02-Apr-18 20:42 44.985674 -122.670272 359 12352ft 267kts
02-Apr-18 20:43 45.059803 -122.662786 0 11066ft 267kts
02-Apr-18 20:44 45.126770 -122.655978 1 9862ft 261kts
02-Apr-18 20:45 45.192219 -122.649308 1 8740ft 260kts
02-Apr-18 20:46 45.260632 -122.636220 29 7841ft 250kts
02-Apr-18 20:47 45.314640 -122.587197 32 7466ft 242kts
02-Apr-18 20:48 45.368726 -122.537774 32 7039ft 230kts
02-Apr-18 20:49 45.421293 -122.488436 46 6747ft 228kts
02-Apr-18 20:50 45.425205 -122.407833 102 5747ft 209kts
02-Apr-18 20:51 45.430457 -122.336386 36 4231ft 198kts
02-Apr-18 20:52 45.476365 -122.338592 323 3261ft 186kts
02-Apr-18 20:53 45.506653 -122.395605 299 2618ft 183kts
02-Apr-18 20:54 45.530511 -122.457945 300 1953ft 182kts
02-Apr-18 20:55 45.555183 -122.519141 299 1085ft 170kts
02-Apr-18 20:56 45.575740 -122.571888 299 257ft 149kts
02-Apr-18 20:57 45.588513 -122.602160 339 36ft 0kts
02-Apr-18 20:58 45.589412 -122.601469 106 37ft 0kts
02-Apr-18 20:59 45.589346 -122.601233 116 37ft 0kts
02-Apr-18 21:00 45.588532 -122.599123 119 37ft 22kts
02-Apr-18 21:01 45.588796 -122.597426 29 37ft 0kts

Navigation Log

Ident Type
Flight plan parsing failed, navigation log unavailable